Home > Products > Valid Products > MTR

000
SAUS43 KDTX 210954
MTRP58
METAR KP58 210951Z AUTO VRB06KT 05/01 A2947 RMK AO1 SLP983 T00500011





000
SAUS43 KDTX 210853
MTRP58
METAR KP58 210851Z AUTO VRB06KT 05/02 A2948 RMK AO1 SLP984 60001
T00500017 57001





000
SAUS43 KDTX 210754
MTRP58
METAR KP58 210751Z AUTO VRB05KT 05/02 A2948 RMK AO1 SLP985 P0001
T00500022





000
SAUS43 KDTX 210653
MTRP58
METAR KP58 210651Z AUTO 22007KT 05/02 A2948 RMK AO1 SLP984 T00500022





000
SAUS43 KDTX 210653
MTRP58
METAR KP58 210651Z AUTO 22007KT 05/02 A2948 RMK AO1 SLP984 T00500022





000
SAUS43 KDTX 210553
MTRP58
METAR KP58 210551Z AUTO 25009G18KT 05/02 A2948 RMK AO1 SLP982 P0002
60003 T00500022 10094 20050 51010





000
SAUS43 KDTX 210553
MTRP58
METAR KP58 210551Z AUTO 25009G18KT 05/02 A2948 RMK AO1 SLP982 P0002
60003 T00500022 10094 20050 51010





000
SAUS43 KDTX 210453
MTRP58
METAR KP58 210451Z AUTO VRB06KT 06/04 A2947 RMK AO1 SLP979 P0001
T00610039 401830056





000
SAUS43 KDTX 210354
MTRP58
METAR KP58 210351Z AUTO VRB06G19KT 07/02 A2947 RMK AO1 SLP979
T00670022





000
SAUS43 KDTX 210254
MTRP58
METAR KP58 210251Z AUTO 25012G20KT 07/02 A2945 RMK AO1 SLP973
T00720022 51032





000
SAUS43 KDTX 210154
MTRP58
METAR KP58 210151Z AUTO 25008G19KT 08/02 A2943 RMK AO1 SLP965
T00780022





000
SAUS43 KDTX 210053
MTRP58
METAR KP58 210051Z AUTO 23012G21KT 190V260 08/03 A2939 RMK AO1
SLP956 T00780033





000
SAUS43 KDTX 210053
MTRP58
METAR KP58 210051Z AUTO 23012G21KT 190V260 08/03 A2939 RMK AO1
SLP956 T00780033





000
SAUS43 KDTX 202353
MTRP58
METAR KP58 202351Z AUTO 24012G23KT 09/05 A2935 RMK AO1 PK WND
23029/2322 SLP942 60012 T00940050 10183 20094 53039





000
SAUS43 KDTX 202252
MTRP58
METAR KP58 202251Z AUTO 24014G25KT 210V290 11/06 A2931 RMK AO1 PK
WND 23033/2211 SLP928 T01060061





000
SAUS43 KDTX 202252
MTRP58
METAR KP58 202251Z AUTO 24014G25KT 210V290 11/06 A2931 RMK AO1 PK
WND 23033/2211 SLP928 T01060061





000
SAUS43 KDTX 202152
MTRP58
METAR KP58 202151Z AUTO 22016G27KT 190V260 12/08 A2927 RMK AO1 PK
WND 23030/2136 SLP913 T01220078





000
SAUS43 KDTX 202053
MTRP58
METAR KP58 202051Z AUTO 23011G21KT 13/10 A2924 RMK AO1 SLP901 60012
T01280100 53021





000
SAUS43 KDTX 201954
MTRP58
METAR KP58 201951Z AUTO 24005G17KT 13/11 A2921 RMK AO1 SLP894 P0008
T01280106





000
SAUS43 KDTX 201954
MTRP58
METAR KP58 201951Z AUTO 24005G17KT 13/11 A2921 RMK AO1 SLP894 P0008
T01280106





000
SAUS43 KDTX 201854
MTRP58
METAR KP58 201851Z AUTO 21009G19KT 14/12 A2919 RMK AO1 SLP884 P0004
T01440117





000
SAUS43 KDTX 201754
MTRP58
METAR KP58 201751Z AUTO 22008G21KT 190V260 18/11 A2917 RMK AO1
SLP878 60002 T01780111 10178 20094 50002 $





000
SAUS43 KDTX 201653
MTRP58
METAR KP58 201651Z AUTO VRB06G20KT 16/11 A2919 RMK AO1 SLP885
T01560106 $





000
SAUS43 KDTX 201653
MTRP58
METAR KP58 201651Z AUTO VRB06G20KT 16/11 A2919 RMK AO1 SLP885
T01560106 $





000
SAUS43 KDTX 201554
MTRP58
METAR KP58 201551Z AUTO 20010G20KT 150V250 16/11 A2918 RMK AO1
SLP882 T01560106 $





000
SAUS43 KDTX 201554
MTRP58
METAR KP58 201551Z AUTO 20010G20KT 150V250 16/11 A2918 RMK AO1
SLP882 T01560106 $





000
SAUS43 KDTX 201452
MTRP58
METAR KP58 201451Z AUTO 21013G25KT 170V240 15/09 A2917 RMK AO1 PK
WND 21026/1429 SLP878 60002 T01500094 $





000
SAUS43 KDTX 201452
MTRP58
METAR KP58 201451Z AUTO 21013G25KT 170V240 15/09 A2917 RMK AO1 PK
WND 21026/1429 SLP878 60002 T01500094 $





000
SAUS43 KDTX 201354
MTRP58
METAR KP58 201351Z AUTO 21012G23KT 180V240 14/11 A2915 RMK AO1
SLP871 P0001 T01390106 $





000
SAUS43 KDTX 201354
MTRP58
METAR KP58 201351Z AUTO 21012G23KT 180V240 14/11 A2915 RMK AO1
SLP871 P0001 T01390106 $





000
SAUS43 KDTX 201253
MTRP58
METAR KP58 201251Z AUTO 15009KT 10/09 A2916 RMK AO1 PK WND
14026/1154 SLP875 P0001 T01000089





000
SAUS43 KDTX 201154
MTRP58
METAR KP58 201151Z AUTO 15016G27KT 09/08 A2916 RMK AO1 PK WND
14030/1052 SLP876 P0001 60010 70035 T00940083 10094 20067 56033





000
SAUS43 KDTX 201154
MTRP58
METAR KP58 201151Z AUTO 15016G27KT 09/08 A2916 RMK AO1 PK WND
14030/1052 SLP876 P0001 60010 70035 T00940083 10094 20067 56033





000
SAUS43 KDTX 201053
MTRP58
METAR KP58 201051Z AUTO 15019G28KT 09/08 A2918 RMK AO1 PK WND
15029/0958 SLP883 P0001 T00890078





000
SAUS43 KDTX 201053
MTRP58
METAR KP58 201051Z AUTO 15019G28KT 09/08 A2918 RMK AO1 PK WND
15029/0958 SLP883 P0001 T00890078





000
SAUS43 KDTX 200954
MTRP58
METAR KP58 200951Z AUTO 14022G30KT 09/07 A2921 RMK AO1 PK WND
14031/0910 SLP893 P0002 T00890072





000
SAUS43 KDTX 200854
MTRP58
METAR KP58 200851Z AUTO 14022G28KT 08/07 A2926 RMK AO1 PK WND
13034/0839 SLP910 P0004 60006 T00780067 58060





000
SAUS43 KDTX 200854
MTRP58
METAR KP58 200851Z AUTO 14022G28KT 08/07 A2926 RMK AO1 PK WND
13034/0839 SLP910 P0004 60006 T00780067 58060





000
SAUS43 KDTX 200752
MTRP58
METAR KP58 200751Z AUTO 13020G29KT 07/06 A2932 RMK AO1 PK WND
12030/0707 SLP932 P0001 T00720061





000
SAUS43 KDTX 200654
MTRP58
METAR KP58 200651Z AUTO 13020G28KT 07/06 A2938 RMK AO1 PK WND
14028/0646 SLP953 P0001 T00720061





000
SAUS43 KDTX 200654
MTRP58
METAR KP58 200651Z AUTO 13020G28KT 07/06 A2938 RMK AO1 PK WND
14028/0646 SLP953 P0001 T00720061





000
SAUS43 KDTX 200552
MTRP58
METAR KP58 200551Z AUTO 11023KT 07/06 A2944 RMK AO1 PK WND
12027/0510 PRESFR SLP973 P0004 60025 T00670061 10089 20061 58061





000
SAUS43 KDTX 200552
MTRP58
METAR KP58 200551Z AUTO 11023KT 07/06 A2944 RMK AO1 PK WND
12027/0510 PRESFR SLP973 P0004 60025 T00670061 10089 20061 58061





000
SAUS43 KDTX 200453
MTRP58
METAR KP58 200451Z AUTO 12020KT 07/06 A2950 RMK AO1 PK WND
12027/0431 SLP994 P0011 T00670056 400940044





000
SAUS43 KDTX 200354
MTRP58
METAR KP58 200351Z AUTO 13019G25KT 07/04 A2956 RMK AO1 PK WND
13026/0339 PRESFR SLP016 P0008 T00670044





000
SAUS43 KDTX 200254
MTRP58
METAR KP58 200251Z AUTO 14017KT 07/03 A2962 RMK AO1 PK WND
14027/0210 SLP035 P0002 60002 T00720028 56034





000
SAUS43 KDTX 200254
MTRP58
METAR KP58 200251Z AUTO 14017KT 07/03 A2962 RMK AO1 PK WND
14027/0210 SLP035 P0002 60002 T00720028 56034





000
SAUS43 KDTX 200154
MTRP58
METAR KP58 200151Z AUTO 13019G25KT 09/01 A2966 RMK AO1 SLP047
T00890011





000
SAUS43 KDTX 200053
MTRP58
METAR KP58 200051Z AUTO 13012KT 08/02 A2968 RMK AO1 SLP055 T00830022





000
SAUS43 KDTX 200053
MTRP58
METAR KP58 200051Z AUTO 13012KT 08/02 A2968 RMK AO1 SLP055 T00830022





000
SAUS43 KDTX 192353
MTRP58
METAR KP58 192351Z AUTO 12013KT 08/03 A2972 RMK AO1 SLP070 T00830028
10094 20061 58035





000
SAUS43 KDTX 192254
MTRP58
METAR KP58 192251Z AUTO 12013KT 09/03 A2975 RMK AO1 SLP080 T00940028





000
SAUS43 KDTX 192153
MTRP58
METAR KP58 192151Z AUTO 11010KT 08/03 A2980 RMK AO1 SLP096 T00780028





000
SAUS43 KDTX 192052
MTRP58
METAR KP58 192051Z AUTO 10009KT 07/02 A2983 RMK AO1 SLP105 T00720017
58044





000
SAUS43 KDTX 191952
MTRP58
METAR KP58 191951Z AUTO 08007KT 07/02 A2987 RMK AO1 SLP120 T00670022





000
SAUS43 KDTX 191952
MTRP58
METAR KP58 191951Z AUTO 08007KT 07/02 A2987 RMK AO1 SLP120 T00670022





000
SAUS43 KDTX 191853
MTRP58
METAR KP58 191851Z AUTO 08007KT 07/02 A2992 RMK AO1 SLP136 T00670017





000
SAUS43 KDTX 191754
MTRP58
METAR KP58 191751Z AUTO 09009KT 07/02 A2996 RMK AO1 SLP151 T00670017
10072 20044 58040





000
SAUS43 KDTX 191652
MTRP58
METAR KP58 191651Z AUTO 09008KT 07/02 A3001 RMK AO1 SLP168 T00720017





000
SAUS43 KDTX 191554
MTRP58
METAR KP58 191551Z AUTO 11010KT 06/01 A3005 RMK AO1 SLP181 T00610011





000
SAUS43 KDTX 191452
MTRP58
METAR KP58 191451Z AUTO 10013KT 06/01 A3008 RMK AO1 SLP191 T00610011
58020





000
SAUS43 KDTX 191452
MTRP58
METAR KP58 191451Z AUTO 10013KT 06/01 A3008 RMK AO1 SLP191 T00610011
58020





000
SAUS43 KDTX 191354
MTRP58
METAR KP58 191351Z AUTO 11011KT 06/01 A3011 RMK AO1 SLP203 T00560006





000
SAUS43 KDTX 191254
MTRP58
METAR KP58 191251Z AUTO 11012KT 05/01 A3013 RMK AO1 SLP210 T00500006





000
SAUS43 KDTX 191153
MTRP58
METAR KP58 191151Z AUTO 11012KT 04/01 A3014 RMK AO1 SLP213 T00440006
10056 20044 53002





000
SAUS43 KDTX 191054
MTRP58
METAR KP58 191051Z AUTO 09011KT 04/00 A3013 RMK AO1 SLP209 T00440000





000
SAUS43 KDTX 191054
MTRP58
METAR KP58 191051Z AUTO 09011KT 04/00 A3013 RMK AO1 SLP209 T00440000





000
SAUS43 KDTX 190952
MTRP58
METAR KP58 190951Z AUTO 11011KT 05/01 A3013 RMK AO1 SLP210 T00500006





000
SAUS43 KDTX 190854
MTRP58
METAR KP58 190851Z AUTO 09014KT 05/01 A3013 RMK AO1 SLP209 T00500006
56015





000
SAUS43 KDTX 190854
MTRP58
METAR KP58 190851Z AUTO 09014KT 05/01 A3013 RMK AO1 SLP209 T00500006
56015





000
SAUS43 KDTX 190754
MTRP58
METAR KP58 190751Z AUTO 09014KT 05/01 A3015 RMK AO1 SLP214 T00500011





000
SAUS43 KDTX 190653
MTRP58
METAR KP58 190651Z AUTO 09010KT 05/01 A3016 RMK AO1 SLP219 T00500006





000
SAUS43 KDTX 190554
MTRP58
METAR KP58 190551Z AUTO 08008KT 04/01 A3018 RMK AO1 SLP225 T00440006
10061 20044





000
SAUS43 KDTX 190554
MTRP58
METAR KP58 190551Z AUTO 08008KT 04/01 A3018 RMK AO1 SLP225 T00440006
10061 20044





000
SAUS43 KDTX 190453
MTRP58
METAR KP58 190451Z AUTO 06011KT 05/01 A3018 RMK AO1 SLP226 T00500011
401220050





000
SAUS43 KDTX 190453
MTRP58
METAR KP58 190451Z AUTO 06011KT 05/01 A3018 RMK AO1 SLP226 T00500011
401220050





000
SAUS43 KDTX 190354
MTRP58
METAR KP58 190351Z AUTO 05011KT 06/01 A3019 RMK AO1 SLP228 T00560011





000
SAUS43 KDTX 190252
MTRP58
METAR KP58 190251Z AUTO 04009KT 06/01 A3019 RMK AO1 SLP228 T00560011
50000





000
SAUS43 KDTX 190154
MTRP58
METAR KP58 190151Z AUTO 02006KT 06/01 A3021 RMK AO1 SLP234 T00560006





000
SAUS43 KDTX 190053
MTRP58
METAR KP58 190051Z AUTO 01006KT 06/01 A3020 RMK AO1 SLP231 T00560011





000
SAUS43 KDTX 190053
MTRP58
METAR KP58 190051Z AUTO 01006KT 06/01 A3020 RMK AO1 SLP231 T00560011





000
SAUS43 KDTX 182352
MTRP58
METAR KP58 182351Z AUTO 01008KT 06/02 A3019 RMK AO1 SLP226 T00610017
10089 20061 58001





000
SAUS43 KDTX 182253
MTRP58
METAR KP58 182251Z AUTO 01008KT 07/02 A3020 RMK AO1 SLP230 T00670017





000
SAUS43 KDTX 182153
MTRP58
METAR KP58 182151Z AUTO 35004KT 08/02 A3021 RMK AO1 SLP235 T00780022





000
SAUS43 KDTX 182153
MTRP58
METAR KP58 182151Z AUTO 35004KT 08/02 A3021 RMK AO1 SLP235 T00780022





000
SAUS43 KDTX 182054
MTRP58
METAR KP58 182051Z AUTO 35006KT 09/02 A3019 RMK AO1 SLP228 T00890022
50006





000
SAUS43 KDTX 181953
MTRP58
METAR KP58 181951Z AUTO 33007KT 08/03 A3020 RMK AO1 SLP231 T00830028





000
SAUS43 KDTX 181953
MTRP58
METAR KP58 181951Z AUTO 33007KT 08/03 A3020 RMK AO1 SLP231 T00830028





000
SAUS43 KDTX 181853
MTRP58
METAR KP58 181851Z AUTO 33008KT 08/02 A3019 RMK AO1 SLP228 T00780022





000
SAUS43 KDTX 181853
MTRP58
METAR KP58 181851Z AUTO 33008KT 08/02 A3019 RMK AO1 SLP228 T00780022





000
SAUS43 KDTX 181754
MTRP58
METAR KP58 181751Z AUTO 34007KT 08/02 A3018 RMK AO1 SLP223 T00780022
10122 20072 51017





000
SAUS43 KDTX 181654
MTRP58
METAR KP58 181651Z AUTO 34007KT 07/02 A3017 RMK AO1 SLP221 T00720017





000
SAUS43 KDTX 181654
MTRP58
METAR KP58 181651Z AUTO 34007KT 07/02 A3017 RMK AO1 SLP221 T00720017





000
SAUS43 KDTX 181553
MTRP58
METAR KP58 181551Z AUTO 35007KT 08/02 A3016 RMK AO1 SLP218 T00780017





000
SAUS43 KDTX 181452
MTRP58
METAR KP58 181451Z AUTO 36009G17KT 08/02 A3012 RMK AO1 SLP205
T00830017 51033





000
SAUS43 KDTX 181452
MTRP58
METAR KP58 181451Z AUTO 36009G17KT 08/02 A3012 RMK AO1 SLP205
T00830017 51033





000
SAUS43 KDTX 181353
MTRP58
METAR KP58 181351Z AUTO 33010KT 09/02 A3010 RMK AO1 SLP196 T00890022





000
SAUS43 KDTX 181353
MTRP58
METAR KP58 181351Z AUTO 33010KT 09/02 A3010 RMK AO1 SLP196 T00890022





000
SAUS43 KDTX 181254
MTRP58
METAR KP58 181251Z AUTO 32011KT 09/04 A3007 RMK AO1 SLP187 T00940039





000
SAUS43 KDTX 181254
MTRP58
METAR KP58 181251Z AUTO 32011KT 09/04 A3007 RMK AO1 SLP187 T00940039





000
SAUS43 KDTX 181153
MTRP58
METAR KP58 181151Z AUTO 29011KT 12/04 A3003 RMK AO1 SLP170 T01220044
10122 20050 53020





000
SAUS43 KDTX 181153
MTRP58
METAR KP58 181151Z AUTO 29011KT 12/04 A3003 RMK AO1 SLP170 T01220044
10122 20050 53020





000
SAUS43 KDTX 181053
MTRP58
METAR KP58 181051Z AUTO VRB06KT 09/04 A2998 RMK AO1 SLP155 T00890044





    US Dept of Commerce
    National Oceanic and Atmospheric Administration
    National Weather Service
    1325 East West Highway
    Silver Spring, MD 20910
    Page Author: NWS Internet Services Team
Disclaimer
Information Quality
Credits
Glossary
Privacy Policy
Freedom of Information Act (FOIA)
About Us
Career Opportunities